Terminal Aerodrome Forecast
Issued by NWS

Home | Current Version | Previous Version | Text Only | Print | Product List | Glossary On
Versions: 1 2 3 4 5 6 7 8 9 10 11 12 13 14
000
FTUS45 KRIW 241720
TAFCPR
TAF
KCPR 241720Z 2418/2518 22014G23KT P6SM SCT040
     FM250100 23012KT P6SM BKN150
     FM250600 27011KT P6SM VCSH SCT030 OVC050
     FM251000 29008KT 6SM -SN OVC012
     FM251500 36007KT 5SM -SN BR OVC012=

USA.gov is the U.S. government's official web portal to all federal, state and local government web resources and services.